Terminal Aerodrome Forecast
Issued by NWS Wilmington, OH

Current Version | Previous Version | Text Only | Print | Product List | Glossary Off
Versions: 1 2 3 4 5 6 7 8 9 10 11 12 13 14 15 16 17 18 19 20 21 22 23 24 25

976
FTUS41 KILN 290503 AAD
TAFCMH
TAF AMD
KCMH 290503Z 2905/2924 00000KT 1SM BR SCT150
      TEMPO 2909/2913 1/2SM FG BKN005
     FM291300 VRB03KT P6SM BKN025
     FM291600 19004KT P6SM VCTS BKN040CB BKN150=

USA.gov is the U.S. government's official web portal to all federal, state and local government web resources and services.